Cezanne — H3NH — position and weather

sailwx.info

Track history (hours):
 
Tides and Currents Weather Stations Pressure Air Temp Water Temp Dewpoint Dewpoint Depression Visibility Wind Speed Wind Dir Waves Ship Positions

Cezanne

Last reported at 2017-Sep-20 03:48 UTC. Time now 2017-Sep-21 12:08 UTC.
Position S 25°20' W 047°08'.

Length 300 m; draft 10.2 m.

Type: Cargo ship. MMSI: 353300000.

Date/timePositionNaut miles runAvg speedWind from/ knotsBaromVisibWave heightAir tempDewpointWater temp
2017-Sep-20 03:48S 25°20' W 047°08'717.6
2017-Sep-20 03:25S 25°17' W 047°02'1117.4
2017-Sep-20 02:48S 25°12' W 046°51'1317.2
2017-Sep-20 02:02S 25°05' W 046°38'017.4
2017-Sep-20 02:00S 25°05' W 046°38'1517.3
2017-Sep-20 01:08S 24°51' W 046°31'317.5
2017-Sep-20 00:59S 24°49' W 046°30'817.4
2017-Sep-20 00:30S 24°41' W 046°28'917.3
2017-Sep-20 00:00S 24°32' W 046°25'917.0
2017-Sep-19 23:30S 24°24' W 046°23'1019.1
2017-Sep-19 23:00S 24°15' W 046°23'918.8
2017-Sep-19 22:31S 24°05' W 046°22'611.3
2017-Sep-19 22:00S 23°60' W 046°20'3 5.6
2017-Sep-19 21:29S 23°58' W 046°18'4 0.3
2017-Sep-19 08:08S 23°55' W 046°21'0 0.1
2017-Sep-19 07:57S 23°55' W 046°21'0 0.1
2017-Sep-19 04:19S 23°55' W 046°21'2 4.9
2017-Sep-19 03:52S 23°56' W 046°19'3 8.1
2017-Sep-19 03:30S 23°59' W 046°17'4 7.6
2017-Sep-19 03:00S 24°01' W 046°21'5 9.9
2017-Sep-19 02:30S 24°06' W 046°23'4 7.7
2017-Sep-19 02:00S 24°09' W 046°24'4 7.9
2017-Sep-19 01:30S 24°13' W 046°24'5 9.4
2017-Sep-19 01:00S 24°18' W 046°25'1 2.6
2017-Sep-19 00:30S 24°19' W 046°25'0 0.6
2017-Sep-19 00:00S 24°20' W 046°25'0 0.6
2017-Sep-18 23:30S 24°20' W 046°25'0 0.6
2017-Sep-18 23:00S 24°20' W 046°25'0 0.7
2017-Sep-18 22:30S 24°21' W 046°25'1 1.0
2017-Sep-18 22:00S 24°21' W 046°24'2 3.0
2017-Sep-18 21:30S 24°20' W 046°23'5 9.7
2017-Sep-18 21:00S 24°18' W 046°18'510.8
2017-Sep-18 20:30S 24°15' W 046°13'611.0
2017-Sep-18 20:00S 24°15' W 046°07'611.1
2017-Sep-18 19:30S 24°16' W 046°01'611.3
2017-Sep-18 19:00S 24°16' W 045°54'612.1
2017-Sep-18 18:29S 24°17' W 045°48'  
2017-Sep-10 22:39N 28°04' W 013°39'320.6
2017-Sep-10 22:30N 28°06' W 013°37'1720.5
2017-Sep-10 21:42N 28°20' W 013°27'520.6
2017-Sep-10 21:27N 28°24' W 013°23'1120.7
2017-Sep-10 20:56N 28°32' W 013°15'1120.7
2017-Sep-10 20:24N 28°41' W 013°08'820.8
2017-Sep-10 19:59N 28°48' W 013°02'1020.7
2017-Sep-10 19:30N 28°56' W 012°56'  
Track history (hours):
 
Tides and Currents Weather Stations Pressure Air Temp Water Temp Dewpoint Dewpoint Depression Visibility Wind Speed Wind Dir Waves Ship Positions

Cezanne

Last reported at 2017-Sep-20 03:48 UTC. Time now 2017-Sep-21 12:08 UTC.
Position S 25°20' W 047°08'.

Length 300 m; draft 10.2 m.

Type: Cargo ship. MMSI: 353300000.

Date/timePositionNaut miles runAvg speedWind from/ knotsBaromVisibWave heightAir tempDewpointWater temp
2017-Sep-20 03:48S 25°20' W 047°08'717.6
2017-Sep-20 03:25S 25°17' W 047°02'1117.4
2017-Sep-20 02:48S 25°12' W 046°51'1317.2
2017-Sep-20 02:02S 25°05' W 046°38'017.4
2017-Sep-20 02:00S 25°05' W 046°38'1517.3
2017-Sep-20 01:08S 24°51' W 046°31'317.5
2017-Sep-20 00:59S 24°49' W 046°30'817.4
2017-Sep-20 00:30S 24°41' W 046°28'917.3
2017-Sep-20 00:00S 24°32' W 046°25'917.0
2017-Sep-19 23:30S 24°24' W 046°23'1019.1
2017-Sep-19 23:00S 24°15' W 046°23'918.8
2017-Sep-19 22:31S 24°05' W 046°22'611.3
2017-Sep-19 22:00S 23°60' W 046°20'3 5.6
2017-Sep-19 21:29S 23°58' W 046°18'4 0.3
2017-Sep-19 08:08S 23°55' W 046°21'0 0.1
2017-Sep-19 07:57S 23°55' W 046°21'0 0.1
2017-Sep-19 04:19S 23°55' W 046°21'2 4.9
2017-Sep-19 03:52S 23°56' W 046°19'3 8.1
2017-Sep-19 03:30S 23°59' W 046°17'4 7.6
2017-Sep-19 03:00S 24°01' W 046°21'5 9.9
2017-Sep-19 02:30S 24°06' W 046°23'4 7.7
2017-Sep-19 02:00S 24°09' W 046°24'4 7.9
2017-Sep-19 01:30S 24°13' W 046°24'5 9.4
2017-Sep-19 01:00S 24°18' W 046°25'1 2.6
2017-Sep-19 00:30S 24°19' W 046°25'0 0.6
2017-Sep-19 00:00S 24°20' W 046°25'0 0.6
2017-Sep-18 23:30S 24°20' W 046°25'0 0.6
2017-Sep-18 23:00S 24°20' W 046°25'0 0.7
2017-Sep-18 22:30S 24°21' W 046°25'1 1.0
2017-Sep-18 22:00S 24°21' W 046°24'2 3.0
2017-Sep-18 21:30S 24°20' W 046°23'5 9.7
2017-Sep-18 21:00S 24°18' W 046°18'510.8
2017-Sep-18 20:30S 24°15' W 046°13'611.0
2017-Sep-18 20:00S 24°15' W 046°07'611.1
2017-Sep-18 19:30S 24°16' W 046°01'611.3
2017-Sep-18 19:00S 24°16' W 045°54'612.1
2017-Sep-18 18:29S 24°17' W 045°48'  
2017-Sep-10 22:39N 28°04' W 013°39'320.6
2017-Sep-10 22:30N 28°06' W 013°37'1720.5
2017-Sep-10 21:42N 28°20' W 013°27'520.6
2017-Sep-10 21:27N 28°24' W 013°23'1120.7
2017-Sep-10 20:56N 28°32' W 013°15'1120.7
2017-Sep-10 20:24N 28°41' W 013°08'820.8
2017-Sep-10 19:59N 28°48' W 013°02'1020.7
2017-Sep-10 19:30N 28°56' W 012°56'  

Dump ship's entire track history